sensor_id;sensor_type;location;lat;lon;timestamp;P1;durP1;ratioP1;P2;durP2;ratioP2
39276;SDS011;63149;48.086;-1.606;2023-05-07T05:00:34;11.55;;;5.50;;
39276;SDS011;63149;48.086;-1.606;2023-05-07T05:03:01;10.68;;;4.90;;
39276;SDS011;63149;48.086;-1.606;2023-05-07T05:05:28;9.48;;;4.97;;
39276;SDS011;63149;48.086;-1.606;2023-05-07T05:07:56;15.68;;;4.97;;
39276;SDS011;63149;48.086;-1.606;2023-05-07T05:10:23;10.07;;;5.43;;
39276;SDS011;63149;48.086;-1.606;2023-05-07T05:12:50;10.68;;;5.15;;
39276;SDS011;63149;48.086;-1.606;2023-05-07T05:15:18;13.88;;;5.82;;
39276;SDS011;63149;48.086;-1.606;2023-05-07T05:17:46;11.52;;;5.55;;
39276;SDS011;63149;48.086;-1.606;2023-05-07T05:20:14;14.15;;;4.97;;
39276;SDS011;63149;48.086;-1.606;2023-05-07T05:22:41;14.20;;;6.10;;
39276;SDS011;63149;48.086;-1.606;2023-05-07T05:25:08;10.02;;;5.03;;
39276;SDS011;63149;48.086;-1.606;2023-05-07T05:27:36;19.25;;;6.00;;
39276;SDS011;63149;48.086;-1.606;2023-05-07T05:30:03;14.50;;;5.57;;
39276;SDS011;63149;48.086;-1.606;2023-05-07T05:32:31;14.85;;;5.57;;
39276;SDS011;63149;48.086;-1.606;2023-05-07T05:35:00;10.80;;;5.53;;
39276;SDS011;63149;48.086;-1.606;2023-05-07T05:37:27;13.18;;;6.68;;
39276;SDS011;63149;48.086;-1.606;2023-05-07T05:39:55;16.20;;;5.22;;
39276;SDS011;63149;48.086;-1.606;2023-05-07T05:42:22;9.45;;;5.38;;
39276;SDS011;63149;48.086;-1.606;2023-05-07T05:44:49;11.85;;;5.35;;
39276;SDS011;63149;48.086;-1.606;2023-05-07T05:47:16;16.48;;;6.30;;
39276;SDS011;63149;48.086;-1.606;2023-05-07T05:49:44;10.70;;;5.50;;
39276;SDS011;63149;48.086;-1.606;2023-05-07T05:52:13;10.98;;;6.28;;
39276;SDS011;63149;48.086;-1.606;2023-05-07T05:54:41;13.53;;;5.83;;
39276;SDS011;63149;48.086;-1.606;2023-05-07T05:57:08;10.02;;;5.30;;
39276;SDS011;63149;48.086;-1.606;2023-05-07T05:59:36;9.50;;;4.70;;
39276;SDS011;63149;48.086;-1.606;2023-05-07T06:02:03;9.00;;;5.05;;
39276;SDS011;63149;48.086;-1.606;2023-05-07T06:04:30;12.88;;;5.20;;
39276;SDS011;63149;48.086;-1.606;2023-05-07T06:06:57;7.72;;;4.97;;
39276;SDS011;63149;48.086;-1.606;2023-05-07T06:09:26;11.32;;;5.28;;
39276;SDS011;63149;48.086;-1.606;2023-05-07T06:11:54;10.18;;;5.35;;
39276;SDS011;63149;48.086;-1.606;2023-05-07T06:14:21;7.65;;;5.55;;
39276;SDS011;63149;48.086;-1.606;2023-05-07T06:16:48;13.85;;;6.18;;
39276;SDS011;63149;48.086;-1.606;2023-05-07T06:19:16;9.80;;;5.35;;
39276;SDS011;63149;48.086;-1.606;2023-05-07T06:21:48;13.93;;;5.45;;
39276;SDS011;63149;48.086;-1.606;2023-05-07T06:24:15;10.82;;;5.45;;
39276;SDS011;63149;48.086;-1.606;2023-05-07T06:26:43;8.88;;;5.38;;
39276;SDS011;63149;48.086;-1.606;2023-05-07T06:29:10;12.55;;;5.80;;
39276;SDS011;63149;48.086;-1.606;2023-05-07T06:31:38;13.38;;;5.30;;
39276;SDS011;63149;48.086;-1.606;2023-05-07T06:34:05;8.63;;;5.20;;
39276;SDS011;63149;48.086;-1.606;2023-05-07T06:36:32;13.13;;;5.40;;
39276;SDS011;63149;48.086;-1.606;2023-05-07T06:39:00;9.95;;;5.78;;
39276;SDS011;63149;48.086;-1.606;2023-05-07T06:41:27;10.68;;;5.28;;
39276;SDS011;63149;48.086;-1.606;2023-05-07T06:43:55;11.77;;;5.30;;
39276;SDS011;63149;48.086;-1.606;2023-05-07T06:46:22;12.80;;;5.70;;
39276;SDS011;63149;48.086;-1.606;2023-05-07T06:48:50;7.50;;;4.78;;
39276;SDS011;63149;48.086;-1.606;2023-05-07T06:51:17;9.95;;;5.55;;
39276;SDS011;63149;48.086;-1.606;2023-05-07T06:53:44;9.70;;;6.10;;
39276;SDS011;63149;48.086;-1.606;2023-05-07T06:56:12;10.43;;;5.88;;
39276;SDS011;63149;48.086;-1.606;2023-05-07T06:58:39;12.55;;;6.05;;
39276;SDS011;63149;48.086;-1.606;2023-05-07T07:01:07;10.27;;;5.30;;
39276;SDS011;63149;48.086;-1.606;2023-05-07T07:03:35;8.95;;;5.43;;
39276;SDS011;63149;48.086;-1.606;2023-05-07T07:06:02;11.18;;;5.22;;
39276;SDS011;63149;48.086;-1.606;2023-05-07T07:08:29;13.25;;;5.97;;
39276;SDS011;63149;48.086;-1.606;2023-05-07T07:10:56;11.73;;;5.50;;
39276;SDS011;63149;48.086;-1.606;2023-05-07T07:13:24;12.40;;;4.70;;
39276;SDS011;63149;48.086;-1.606;2023-05-07T07:15:51;9.38;;;5.70;;
39276;SDS011;63149;48.086;-1.606;2023-05-07T07:18:20;9.30;;;5.22;;
39276;SDS011;63149;48.086;-1.606;2023-05-07T07:20:47;10.80;;;4.97;;
39276;SDS011;63149;48.086;-1.606;2023-05-07T07:23:14;5.25;;;3.60;;
39276;SDS011;63149;48.086;-1.606;2023-05-07T07:25:41;6.18;;;4.75;;
39276;SDS011;63149;48.086;-1.606;2023-05-07T07:28:08;6.55;;;4.25;;
39276;SDS011;63149;48.086;-1.606;2023-05-07T07:30:36;5.63;;;3.63;;
39276;SDS011;63149;48.086;-1.606;2023-05-07T07:33:04;5.97;;;4.10;;
39276;SDS011;63149;48.086;-1.606;2023-05-07T07:35:32;9.57;;;4.97;;
39276;SDS011;63149;48.086;-1.606;2023-05-07T07:37:59;9.23;;;5.30;;
39276;SDS011;63149;48.086;-1.606;2023-05-07T07:40:27;6.03;;;4.82;;
39276;SDS011;63149;48.086;-1.606;2023-05-07T07:42:54;7.75;;;4.70;;
39276;SDS011;63149;48.086;-1.606;2023-05-07T07:45:21;7.68;;;4.88;;
39276;SDS011;63149;48.086;-1.606;2023-05-07T07:47:48;7.95;;;5.30;;
39276;SDS011;63149;48.086;-1.606;2023-05-07T07:50:16;8.25;;;5.38;;
39276;SDS011;63149;48.086;-1.606;2023-05-07T07:52:44;9.05;;;6.30;;
39276;SDS011;63149;48.086;-1.606;2023-05-07T07:55:12;9.68;;;6.00;;
39276;SDS011;63149;48.086;-1.606;2023-05-07T07:57:43;6.80;;;4.93;;
39276;SDS011;63149;48.086;-1.606;2023-05-07T08:00:10;10.55;;;6.38;;
39276;SDS011;63149;48.086;-1.606;2023-05-07T08:02:38;11.60;;;5.75;;
39276;SDS011;63149;48.086;-1.606;2023-05-07T08:05:05;13.68;;;6.72;;
39276;SDS011;63149;48.086;-1.606;2023-05-07T08:07:32;9.70;;;6.43;;
39276;SDS011;63149;48.086;-1.606;2023-05-07T08:10:01;12.85;;;6.28;;
39276;SDS011;63149;48.086;-1.606;2023-05-07T08:12:28;12.98;;;7.28;;
39276;SDS011;63149;48.086;-1.606;2023-05-07T08:14:55;14.02;;;7.93;;
39276;SDS011;63149;48.086;-1.606;2023-05-07T08:17:23;14.05;;;7.68;;
39276;SDS011;63149;48.086;-1.606;2023-05-07T08:19:50;13.07;;;8.32;;
39276;SDS011;63149;48.086;-1.606;2023-05-07T08:22:17;14.15;;;8.07;;
39276;SDS011;63149;48.086;-1.606;2023-05-07T08:24:44;17.52;;;9.02;;
39276;SDS011;63149;48.086;-1.606;2023-05-07T08:27:13;17.35;;;8.95;;
39276;SDS011;63149;48.086;-1.606;2023-05-07T08:29:40;14.82;;;8.88;;
39276;SDS011;63149;48.086;-1.606;2023-05-07T08:32:07;17.15;;;7.97;;
39276;SDS011;63149;48.086;-1.606;2023-05-07T08:34:34;13.63;;;7.88;;
39276;SDS011;63149;48.086;-1.606;2023-05-07T08:37:01;16.17;;;7.38;;
39276;SDS011;63149;48.086;-1.606;2023-05-07T08:39:29;12.18;;;7.15;;
39276;SDS011;63149;48.086;-1.606;2023-05-07T08:41:56;11.77;;;5.97;;
39276;SDS011;63149;48.086;-1.606;2023-05-07T08:44:28;8.82;;;6.00;;
39276;SDS011;63149;48.086;-1.606;2023-05-07T08:47:00;9.30;;;5.72;;
39276;SDS011;63149;48.086;-1.606;2023-05-07T08:49:27;11.52;;;5.70;;
39276;SDS011;63149;48.086;-1.606;2023-05-07T08:51:54;14.63;;;6.68;;
39276;SDS011;63149;48.086;-1.606;2023-05-07T08:54:22;10.27;;;6.75;;
39276;SDS011;63149;48.086;-1.606;2023-05-07T08:56:49;17.98;;;7.40;;
39276;SDS011;63149;48.086;-1.606;2023-05-07T08:59:16;14.52;;;6.88;;
39276;SDS011;63149;48.086;-1.606;2023-05-07T09:01:45;13.05;;;6.78;;
39276;SDS011;63149;48.086;-1.606;2023-05-07T09:04:12;12.70;;;7.30;;
39276;SDS011;63149;48.086;-1.606;2023-05-07T09:06:39;11.50;;;6.65;;
39276;SDS011;63149;48.086;-1.606;2023-05-07T09:09:07;12.45;;;6.55;;
39276;SDS011;63149;48.086;-1.606;2023-05-07T09:11:34;10.10;;;5.70;;
39276;SDS011;63149;48.086;-1.606;2023-05-07T09:14:02;10.32;;;6.05;;
39276;SDS011;63149;48.086;-1.606;2023-05-07T09:16:29;10.00;;;5.47;;
39276;SDS011;63149;48.086;-1.606;2023-05-07T09:18:58;9.18;;;5.72;;
39276;SDS011;63149;48.086;-1.606;2023-05-07T09:21:26;13.65;;;6.30;;
39276;SDS011;63149;48.086;-1.606;2023-05-07T09:23:54;9.10;;;5.35;;
39276;SDS011;63149;48.086;-1.606;2023-05-07T09:26:21;6.40;;;4.75;;
39276;SDS011;63149;48.086;-1.606;2023-05-07T09:28:48;7.88;;;5.28;;
39276;SDS011;63149;48.086;-1.606;2023-05-07T09:31:16;7.55;;;5.18;;
39276;SDS011;63149;48.086;-1.606;2023-05-07T09:33:43;7.40;;;5.35;;
39276;SDS011;63149;48.086;-1.606;2023-05-07T09:36:12;6.47;;;4.55;;
39276;SDS011;63149;48.086;-1.606;2023-05-07T09:38:39;7.28;;;5.65;;
39276;SDS011;63149;48.086;-1.606;2023-05-07T09:41:07;8.48;;;4.75;;
39276;SDS011;63149;48.086;-1.606;2023-05-07T09:43:35;6.35;;;4.22;;
39276;SDS011;63149;48.086;-1.606;2023-05-07T09:46:03;7.72;;;4.10;;
39276;SDS011;63149;48.086;-1.606;2023-05-07T09:48:30;8.63;;;4.60;;
39276;SDS011;63149;48.086;-1.606;2023-05-07T09:51:00;11.85;;;5.15;;
39276;SDS011;63149;48.086;-1.606;2023-05-07T09:53:30;6.45;;;4.28;;
39276;SDS011;63149;48.086;-1.606;2023-05-07T09:55:58;7.60;;;4.43;;
39276;SDS011;63149;48.086;-1.606;2023-05-07T09:58:26;8.00;;;4.00;;
39276;SDS011;63149;48.086;-1.606;2023-05-07T10:00:53;7.03;;;4.47;;
39276;SDS011;63149;48.086;-1.606;2023-05-07T10:03:20;6.68;;;4.00;;
39276;SDS011;63149;48.086;-1.606;2023-05-07T10:05:48;4.63;;;3.75;;
39276;SDS011;63149;48.086;-1.606;2023-05-07T10:08:16;6.50;;;3.22;;
39276;SDS011;63149;48.086;-1.606;2023-05-07T10:10:46;6.45;;;4.10;;
39276;SDS011;63149;48.086;-1.606;2023-05-07T10:13:13;5.65;;;3.83;;
39276;SDS011;63149;48.086;-1.606;2023-05-07T10:15:41;4.68;;;3.45;;
39276;SDS011;63149;48.086;-1.606;2023-05-07T10:18:08;4.20;;;3.33;;
39276;SDS011;63149;48.086;-1.606;2023-05-07T10:20:35;5.57;;;3.38;;
39276;SDS011;63149;48.086;-1.606;2023-05-07T10:23:04;4.55;;;3.80;;
39276;SDS011;63149;48.086;-1.606;2023-05-07T10:25:31;5.47;;;3.72;;
39276;SDS011;63149;48.086;-1.606;2023-05-07T10:28:01;6.47;;;3.47;;
39276;SDS011;63149;48.086;-1.606;2023-05-07T10:30:32;6.00;;;3.55;;
39276;SDS011;63149;48.086;-1.606;2023-05-07T10:33:03;5.97;;;3.83;;
39276;SDS011;63149;48.086;-1.606;2023-05-07T10:35:36;5.45;;;3.83;;
39276;SDS011;63149;48.086;-1.606;2023-05-07T10:38:04;5.82;;;4.05;;
39276;SDS011;63149;48.086;-1.606;2023-05-07T10:40:31;6.68;;;4.20;;
39276;SDS011;63149;48.086;-1.606;2023-05-07T10:43:00;7.70;;;3.85;;
39276;SDS011;63149;48.086;-1.606;2023-05-07T10:45:30;6.82;;;3.80;;
39276;SDS011;63149;48.086;-1.606;2023-05-07T10:48:07;7.60;;;4.10;;
39276;SDS011;63149;48.086;-1.606;2023-05-07T10:50:34;9.05;;;4.38;;
39276;SDS011;63149;48.086;-1.606;2023-05-07T10:53:20;4.40;;;3.50;;
39276;SDS011;63149;48.086;-1.606;2023-05-07T10:55:49;6.93;;;3.80;;
39276;SDS011;63149;48.086;-1.606;2023-05-07T10:58:23;5.15;;;3.50;;
39276;SDS011;63149;48.086;-1.606;2023-05-07T11:00:55;6.75;;;3.67;;
39276;SDS011;63149;48.086;-1.606;2023-05-07T11:03:22;4.95;;;3.30;;
39276;SDS011;63149;48.086;-1.606;2023-05-07T11:06:07;6.85;;;4.60;;
39276;SDS011;63149;48.086;-1.606;2023-05-07T11:08:54;5.55;;;3.88;;
39276;SDS011;63149;48.086;-1.606;2023-05-07T11:14:04;5.53;;;3.67;;
39276;SDS011;63149;48.086;-1.606;2023-05-07T11:16:32;6.45;;;4.03;;
39276;SDS011;63149;48.086;-1.606;2023-05-07T11:19:01;7.05;;;4.25;;
39276;SDS011;63149;48.086;-1.606;2023-05-07T11:21:32;9.30;;;4.28;;
39276;SDS011;63149;48.086;-1.606;2023-05-07T11:24:00;6.95;;;4.30;;
39276;SDS011;63149;48.086;-1.606;2023-05-07T11:26:28;10.75;;;6.00;;
39276;SDS011;63149;48.086;-1.606;2023-05-07T11:28:56;7.88;;;4.97;;
39276;SDS011;63149;48.086;-1.606;2023-05-07T11:31:27;6.78;;;4.70;;
39276;SDS011;63149;48.086;-1.606;2023-05-07T11:33:55;6.72;;;4.75;;
39276;SDS011;63149;48.086;-1.606;2023-05-07T11:36:22;8.40;;;4.97;;
39276;SDS011;63149;48.086;-1.606;2023-05-07T11:38:51;9.10;;;5.65;;
39276;SDS011;63149;48.086;-1.606;2023-05-07T11:41:18;9.43;;;5.43;;
39276;SDS011;63149;48.086;-1.606;2023-05-07T11:43:55;7.75;;;5.18;;
39276;SDS011;63149;48.086;-1.606;2023-05-07T11:46:22;10.13;;;5.15;;
39276;SDS011;63149;48.086;-1.606;2023-05-07T11:48:51;7.97;;;4.80;;
39276;SDS011;63149;48.086;-1.606;2023-05-07T11:51:18;8.52;;;4.45;;
39276;SDS011;63149;48.086;-1.606;2023-05-07T11:53:46;8.55;;;4.70;;
39276;SDS011;63149;48.086;-1.606;2023-05-07T11:56:14;4.70;;;3.67;;
39276;SDS011;63149;48.086;-1.606;2023-05-07T11:58:41;5.93;;;4.18;;
39276;SDS011;63149;48.086;-1.606;2023-05-07T12:01:09;6.82;;;4.38;;
39276;SDS011;63149;48.086;-1.606;2023-05-07T12:03:37;7.05;;;3.75;;
39276;SDS011;63149;48.086;-1.606;2023-05-07T12:06:06;6.13;;;3.95;;
39276;SDS011;63149;48.086;-1.606;2023-05-07T12:08:35;5.95;;;3.90;;
39276;SDS011;63149;48.086;-1.606;2023-05-07T12:11:03;6.63;;;3.38;;
39276;SDS011;63149;48.086;-1.606;2023-05-07T12:13:33;5.03;;;3.43;;
39276;SDS011;63149;48.086;-1.606;2023-05-07T12:16:00;5.20;;;3.10;;
39276;SDS011;63149;48.086;-1.606;2023-05-07T12:18:29;5.25;;;3.83;;
39276;SDS011;63149;48.086;-1.606;2023-05-07T12:20:56;5.38;;;3.60;;
39276;SDS011;63149;48.086;-1.606;2023-05-07T12:23:25;6.07;;;3.50;;
39276;SDS011;63149;48.086;-1.606;2023-05-07T12:25:52;8.30;;;5.00;;
39276;SDS011;63149;48.086;-1.606;2023-05-07T12:28:20;6.32;;;3.85;;
39276;SDS011;63149;48.086;-1.606;2023-05-07T12:30:47;8.27;;;4.45;;
39276;SDS011;63149;48.086;-1.606;2023-05-07T12:33:16;8.20;;;4.55;;
39276;SDS011;63149;48.086;-1.606;2023-05-07T12:35:46;8.90;;;5.03;;
39276;SDS011;63149;48.086;-1.606;2023-05-07T12:38:15;9.68;;;5.60;;
39276;SDS011;63149;48.086;-1.606;2023-05-07T12:40:45;8.40;;;4.68;;
39276;SDS011;63149;48.086;-1.606;2023-05-07T12:43:16;11.32;;;4.80;;
39276;SDS011;63149;48.086;-1.606;2023-05-07T12:45:44;10.23;;;4.60;;
39276;SDS011;63149;48.086;-1.606;2023-05-07T12:48:11;12.73;;;4.78;;
39276;SDS011;63149;48.086;-1.606;2023-05-07T12:50:39;10.05;;;4.43;;
39276;SDS011;63149;48.086;-1.606;2023-05-07T12:53:06;9.73;;;4.50;;
39276;SDS011;63149;48.086;-1.606;2023-05-07T12:55:40;10.93;;;4.47;;
39276;SDS011;63149;48.086;-1.606;2023-05-07T12:58:09;8.60;;;4.10;;
39276;SDS011;63149;48.086;-1.606;2023-05-07T13:00:41;7.18;;;3.45;;
39276;SDS011;63149;48.086;-1.606;2023-05-07T13:03:08;10.52;;;3.85;;
39276;SDS011;63149;48.086;-1.606;2023-05-07T13:05:36;8.70;;;3.92;;
39276;SDS011;63149;48.086;-1.606;2023-05-07T13:08:03;8.23;;;3.78;;
39276;SDS011;63149;48.086;-1.606;2023-05-07T13:10:30;8.40;;;3.50;;
39276;SDS011;63149;48.086;-1.606;2023-05-07T13:12:59;7.97;;;3.55;;
39276;SDS011;63149;48.086;-1.606;2023-05-07T13:15:27;7.88;;;4.25;;
39276;SDS011;63149;48.086;-1.606;2023-05-07T13:17:55;6.70;;;3.63;;
39276;SDS011;63149;48.086;-1.606;2023-05-07T13:20:22;6.10;;;3.22;;
39276;SDS011;63149;48.086;-1.606;2023-05-07T13:22:49;7.35;;;3.40;;
39276;SDS011;63149;48.086;-1.606;2023-05-07T13:25:16;14.18;;;4.00;;
39276;SDS011;63149;48.086;-1.606;2023-05-07T13:27:43;5.95;;;3.50;;
39276;SDS011;63149;48.086;-1.606;2023-05-07T13:30:11;8.75;;;3.67;;
39276;SDS011;63149;48.086;-1.606;2023-05-07T13:32:39;6.03;;;2.97;;
39276;SDS011;63149;48.086;-1.606;2023-05-07T13:35:07;5.90;;;3.15;;
39276;SDS011;63149;48.086;-1.606;2023-05-07T13:37:34;7.57;;;3.55;;
39276;SDS011;63149;48.086;-1.606;2023-05-07T13:40:02;11.23;;;4.30;;
39276;SDS011;63149;48.086;-1.606;2023-05-07T13:42:29;6.13;;;3.55;;
39276;SDS011;63149;48.086;-1.606;2023-05-07T13:44:56;10.38;;;3.28;;
39276;SDS011;63149;48.086;-1.606;2023-05-07T13:47:24;5.50;;;2.75;;
39276;SDS011;63149;48.086;-1.606;2023-05-07T13:49:52;7.47;;;3.05;;
39276;SDS011;63149;48.086;-1.606;2023-05-07T13:52:19;4.88;;;2.58;;
39276;SDS011;63149;48.086;-1.606;2023-05-07T13:54:47;7.22;;;3.00;;
39276;SDS011;63149;48.086;-1.606;2023-05-07T13:57:14;8.65;;;3.40;;
39276;SDS011;63149;48.086;-1.606;2023-05-07T13:59:41;4.38;;;2.40;;
39276;SDS011;63149;48.086;-1.606;2023-05-07T14:02:08;6.32;;;2.72;;
39276;SDS011;63149;48.086;-1.606;2023-05-07T14:04:36;5.10;;;2.35;;
39276;SDS011;63149;48.086;-1.606;2023-05-07T14:07:05;7.78;;;3.08;;
39276;SDS011;63149;48.086;-1.606;2023-05-07T14:09:32;4.32;;;2.22;;
39276;SDS011;63149;48.086;-1.606;2023-05-07T14:11:59;2.92;;;2.08;;
39276;SDS011;63149;48.086;-1.606;2023-05-07T14:14:27;5.45;;;2.45;;
39276;SDS011;63149;48.086;-1.606;2023-05-07T14:16:54;5.03;;;2.05;;
39276;SDS011;63149;48.086;-1.606;2023-05-07T14:19:21;4.90;;;2.13;;
39276;SDS011;63149;48.086;-1.606;2023-05-07T14:21:48;4.15;;;2.20;;
39276;SDS011;63149;48.086;-1.606;2023-05-07T14:24:17;4.85;;;2.10;;
39276;SDS011;63149;48.086;-1.606;2023-05-07T14:26:44;6.07;;;2.45;;
39276;SDS011;63149;48.086;-1.606;2023-05-07T14:29:11;5.03;;;2.10;;
39276;SDS011;63149;48.086;-1.606;2023-05-07T14:31:40;3.97;;;2.00;;
39276;SDS011;63149;48.086;-1.606;2023-05-07T14:34:07;3.22;;;1.95;;
39276;SDS011;63149;48.086;-1.606;2023-05-07T14:36:35;6.05;;;2.22;;
39276;SDS011;63149;48.086;-1.606;2023-05-07T14:39:02;4.15;;;1.90;;
39276;SDS011;63149;48.086;-1.606;2023-05-07T14:41:31;3.42;;;1.83;;
39276;SDS011;63149;48.086;-1.606;2023-05-07T14:43:58;2.67;;;1.63;;
39276;SDS011;63149;48.086;-1.606;2023-05-07T14:46:26;4.32;;;1.55;;
39276;SDS011;63149;48.086;-1.606;2023-05-07T14:48:53;4.32;;;1.98;;
39276;SDS011;63149;48.086;-1.606;2023-05-07T14:51:21;2.72;;;1.70;;
39276;SDS011;63149;48.086;-1.606;2023-05-07T14:53:49;2.38;;;2.00;;
39276;SDS011;63149;48.086;-1.606;2023-05-07T14:56:17;6.85;;;2.08;;
39276;SDS011;63149;48.086;-1.606;2023-05-07T14:58:45;5.82;;;2.05;;
39276;SDS011;63149;48.086;-1.606;2023-05-07T15:01:13;2.95;;;2.20;;
39276;SDS011;63149;48.086;-1.606;2023-05-07T15:03:41;5.18;;;1.98;;
39276;SDS011;63149;48.086;-1.606;2023-05-07T15:06:08;4.30;;;2.30;;
39276;SDS011;63149;48.086;-1.606;2023-05-07T15:08:35;5.85;;;2.25;;
39276;SDS011;63149;48.086;-1.606;2023-05-07T15:11:02;4.03;;;1.80;;
39276;SDS011;63149;48.086;-1.606;2023-05-07T15:13:29;5.28;;;1.92;;
39276;SDS011;63149;48.086;-1.606;2023-05-07T15:15:58;1.88;;;1.60;;
39276;SDS011;63149;48.086;-1.606;2023-05-07T15:18:25;6.80;;;2.90;;
39276;SDS011;63149;48.086;-1.606;2023-05-07T15:20:52;2.85;;;1.80;;
39276;SDS011;63149;48.086;-1.606;2023-05-07T15:23:20;4.80;;;1.88;;
39276;SDS011;63149;48.086;-1.606;2023-05-07T15:25:47;3.45;;;1.73;;
39276;SDS011;63149;48.086;-1.606;2023-05-07T15:28:14;4.18;;;2.20;;
39276;SDS011;63149;48.086;-1.606;2023-05-07T15:30:42;3.65;;;2.17;;
39276;SDS011;63149;48.086;-1.606;2023-05-07T15:33:10;6.07;;;1.88;;
39276;SDS011;63149;48.086;-1.606;2023-05-07T15:35:37;3.38;;;1.90;;
39276;SDS011;63149;48.086;-1.606;2023-05-07T15:38:04;3.15;;;1.83;;
39276;SDS011;63149;48.086;-1.606;2023-05-07T15:40:33;2.75;;;1.73;;
39276;SDS011;63149;48.086;-1.606;2023-05-07T15:43:02;3.33;;;1.52;;
39276;SDS011;63149;48.086;-1.606;2023-05-07T15:45:29;3.53;;;1.65;;
39276;SDS011;63149;48.086;-1.606;2023-05-07T15:47:57;5.90;;;1.80;;
39276;SDS011;63149;48.086;-1.606;2023-05-07T15:50:25;3.22;;;1.67;;
39276;SDS011;63149;48.086;-1.606;2023-05-07T15:52:53;6.45;;;2.00;;
39276;SDS011;63149;48.086;-1.606;2023-05-07T15:55:20;5.50;;;1.90;;
39276;SDS011;63149;48.086;-1.606;2023-05-07T15:57:48;4.05;;;1.98;;
39276;SDS011;63149;48.086;-1.606;2023-05-07T16:00:15;4.25;;;2.10;;
39276;SDS011;63149;48.086;-1.606;2023-05-07T16:02:43;5.30;;;1.85;;
39276;SDS011;63149;48.086;-1.606;2023-05-07T16:05:10;5.03;;;2.20;;
39276;SDS011;63149;48.086;-1.606;2023-05-07T16:07:39;4.57;;;1.92;;
39276;SDS011;63149;48.086;-1.606;2023-05-07T16:10:08;3.88;;;1.83;;
39276;SDS011;63149;48.086;-1.606;2023-05-07T16:12:36;5.43;;;1.67;;
39276;SDS011;63149;48.086;-1.606;2023-05-07T16:15:03;7.93;;;1.80;;
39276;SDS011;63149;48.086;-1.606;2023-05-07T16:17:31;4.93;;;1.70;;
39276;SDS011;63149;48.086;-1.606;2023-05-07T16:19:58;4.53;;;2.20;;
39276;SDS011;63149;48.086;-1.606;2023-05-07T16:22:26;5.13;;;1.65;;
39276;SDS011;63149;48.086;-1.606;2023-05-07T16:24:54;4.93;;;2.03;;
39276;SDS011;63149;48.086;-1.606;2023-05-07T16:27:21;4.10;;;1.80;;
39276;SDS011;63149;48.086;-1.606;2023-05-07T16:29:49;4.68;;;1.70;;
39276;SDS011;63149;48.086;-1.606;2023-05-07T16:32:16;5.45;;;2.00;;
39276;SDS011;63149;48.086;-1.606;2023-05-07T16:34:43;5.75;;;2.38;;
39276;SDS011;63149;48.086;-1.606;2023-05-07T16:37:11;3.72;;;1.90;;
39276;SDS011;63149;48.086;-1.606;2023-05-07T16:39:38;6.78;;;2.08;;
39276;SDS011;63149;48.086;-1.606;2023-05-07T16:42:06;5.50;;;2.00;;
39276;SDS011;63149;48.086;-1.606;2023-05-07T16:44:34;5.60;;;2.35;;
39276;SDS011;63149;48.086;-1.606;2023-05-07T16:47:01;5.20;;;2.03;;
39276;SDS011;63149;48.086;-1.606;2023-05-07T16:49:28;6.65;;;2.42;;
39276;SDS011;63149;48.086;-1.606;2023-05-07T16:51:55;4.25;;;1.85;;
39276;SDS011;63149;48.086;-1.606;2023-05-07T16:54:22;4.45;;;1.80;;
39276;SDS011;63149;48.086;-1.606;2023-05-07T16:56:50;5.75;;;2.28;;
39276;SDS011;63149;48.086;-1.606;2023-05-07T16:59:18;4.93;;;2.28;;
39276;SDS011;63149;48.086;-1.606;2023-05-07T17:01:47;3.83;;;1.88;;
39276;SDS011;63149;48.086;-1.606;2023-05-07T17:04:16;4.03;;;2.10;;
39276;SDS011;63149;48.086;-1.606;2023-05-07T17:06:43;8.93;;;2.20;;
39276;SDS011;63149;48.086;-1.606;2023-05-07T17:09:10;3.47;;;1.80;;
39276;SDS011;63149;48.086;-1.606;2023-05-07T17:11:37;4.05;;;1.70;;
39276;SDS011;63149;48.086;-1.606;2023-05-07T17:14:05;6.32;;;2.33;;
39276;SDS011;63149;48.086;-1.606;2023-05-07T17:16:33;3.97;;;2.13;;
39276;SDS011;63149;48.086;-1.606;2023-05-07T17:19:00;5.82;;;2.33;;
39276;SDS011;63149;48.086;-1.606;2023-05-07T17:21:28;9.95;;;2.50;;
39276;SDS011;63149;48.086;-1.606;2023-05-07T17:23:55;7.43;;;2.45;;
39276;SDS011;63149;48.086;-1.606;2023-05-07T17:26:22;8.27;;;2.30;;
39276;SDS011;63149;48.086;-1.606;2023-05-07T17:28:49;6.90;;;2.35;;
39276;SDS011;63149;48.086;-1.606;2023-05-07T17:31:16;6.25;;;2.10;;
39276;SDS011;63149;48.086;-1.606;2023-05-07T17:33:45;4.82;;;2.20;;
39276;SDS011;63149;48.086;-1.606;2023-05-07T17:36:12;7.28;;;2.47;;
39276;SDS011;63149;48.086;-1.606;2023-05-07T17:38:39;8.60;;;2.40;;
39276;SDS011;63149;48.086;-1.606;2023-05-07T17:41:07;8.05;;;2.65;;
39276;SDS011;63149;48.086;-1.606;2023-05-07T17:43:34;7.78;;;3.05;;
39276;SDS011;63149;48.086;-1.606;2023-05-07T17:46:01;7.63;;;2.60;;
39276;SDS011;63149;48.086;-1.606;2023-05-07T17:48:28;10.55;;;2.67;;
39276;SDS011;63149;48.086;-1.606;2023-05-07T17:51:00;10.20;;;2.78;;
39276;SDS011;63149;48.086;-1.606;2023-05-07T17:53:28;8.32;;;3.25;;
39276;SDS011;63149;48.086;-1.606;2023-05-07T17:55:55;10.60;;;3.13;;
39276;SDS011;63149;48.086;-1.606;2023-05-07T17:58:23;9.93;;;3.50;;
39276;SDS011;63149;48.086;-1.606;2023-05-07T18:00:52;9.18;;;2.85;;
39276;SDS011;63149;48.086;-1.606;2023-05-07T18:03:19;8.63;;;3.00;;
39276;SDS011;63149;48.086;-1.606;2023-05-07T18:05:48;8.98;;;2.60;;
39276;SDS011;63149;48.086;-1.606;2023-05-07T18:08:17;8.77;;;3.13;;
39276;SDS011;63149;48.086;-1.606;2023-05-07T18:10:44;6.53;;;2.97;;
39276;SDS011;63149;48.086;-1.606;2023-05-07T18:13:11;5.93;;;2.85;;
39276;SDS011;63149;48.086;-1.606;2023-05-07T18:15:38;6.03;;;3.25;;
39276;SDS011;63149;48.086;-1.606;2023-05-07T18:18:05;12.43;;;3.22;;
39276;SDS011;63149;48.086;-1.606;2023-05-07T18:20:33;5.03;;;2.80;;
39276;SDS011;63149;48.086;-1.606;2023-05-07T18:23:00;11.20;;;4.43;;
39276;SDS011;63149;48.086;-1.606;2023-05-07T18:25:29;7.97;;;2.75;;
39276;SDS011;63149;48.086;-1.606;2023-05-07T18:27:56;7.18;;;2.60;;
39276;SDS011;63149;48.086;-1.606;2023-05-07T18:30:24;10.20;;;3.50;;
39276;SDS011;63149;48.086;-1.606;2023-05-07T18:32:51;6.00;;;3.20;;
39276;SDS011;63149;48.086;-1.606;2023-05-07T18:35:18;9.10;;;3.13;;
39276;SDS011;63149;48.086;-1.606;2023-05-07T18:37:45;9.57;;;3.08;;
39276;SDS011;63149;48.086;-1.606;2023-05-07T18:40:12;7.55;;;3.00;;
39276;SDS011;63149;48.086;-1.606;2023-05-07T18:42:41;6.20;;;2.90;;
39276;SDS011;63149;48.086;-1.606;2023-05-07T18:45:08;9.73;;;3.25;;
39276;SDS011;63149;48.086;-1.606;2023-05-07T18:47:36;11.18;;;3.50;;
39276;SDS011;63149;48.086;-1.606;2023-05-07T18:50:03;11.38;;;3.28;;
39276;SDS011;63149;48.086;-1.606;2023-05-07T18:52:30;9.07;;;2.45;;
39276;SDS011;63149;48.086;-1.606;2023-05-07T18:54:58;10.93;;;3.58;;
39276;SDS011;63149;48.086;-1.606;2023-05-07T18:57:25;8.52;;;4.03;;
39276;SDS011;63149;48.086;-1.606;2023-05-07T18:59:54;6.13;;;3.10;;
39276;SDS011;63149;48.086;-1.606;2023-05-07T19:04:56;10.82;;;2.92;;
39276;SDS011;63149;48.086;-1.606;2023-05-07T19:07:23;6.32;;;3.10;;
39276;SDS011;63149;48.086;-1.606;2023-05-07T19:09:51;9.88;;;3.15;;
39276;SDS011;63149;48.086;-1.606;2023-05-07T19:12:18;9.15;;;3.13;;
39276;SDS011;63149;48.086;-1.606;2023-05-07T19:14:45;8.13;;;3.22;;
39276;SDS011;63149;48.086;-1.606;2023-05-07T19:17:14;8.75;;;3.13;;
39276;SDS011;63149;48.086;-1.606;2023-05-07T19:19:41;7.85;;;3.00;;
39276;SDS011;63149;48.086;-1.606;2023-05-07T19:24:40;10.43;;;3.67;;
39276;SDS011;63149;48.086;-1.606;2023-05-07T19:27:07;6.97;;;3.42;;
39276;SDS011;63149;48.086;-1.606;2023-05-07T19:29:34;6.78;;;3.10;;
39276;SDS011;63149;48.086;-1.606;2023-05-07T19:32:02;8.85;;;2.90;;
39276;SDS011;63149;48.086;-1.606;2023-05-07T19:34:30;7.22;;;3.38;;
39276;SDS011;63149;48.086;-1.606;2023-05-07T19:36:58;6.88;;;3.17;;
39276;SDS011;63149;48.086;-1.606;2023-05-07T19:39:25;10.07;;;3.78;;
39276;SDS011;63149;48.086;-1.606;2023-05-07T19:41:52;8.77;;;3.13;;